Terminal Aerodrome Forecast
Issued by NWS Boston, MA

Home | Current Version | Previous Version | Text Only | Print | Product List | Glossary On
Versions: 1 2 3 4 5 6 7 8 9 10 11 12 13 14 15 16 17 18 19 20 21 22
000
FTUS41 KBOX 120950 AAB
TAFORH
TAF AMD
KORH 120950Z 1210/1306 06005KT P6SM OVC030
     FM121100 11006KT 2SM -FZRASNPL OVC015
     FM121600 12007KT 2SM -RA OVC015
     FM121900 14008KT 1SM -RA OVC008
     FM130000 24007KT P6SM OVC010
     FM130400 26009KT P6SM BKN020=

USA.gov is the U.S. government's official web portal to all federal, state and local government web resources and services.